createdAt,value
2019-02-10T00:00:40.767Z,97996.84
2019-02-10T00:03:14.137Z,97994.91
2019-02-10T00:05:44.194Z,97995.09
2019-02-10T00:08:13.832Z,97997.75
2019-02-10T00:10:44.991Z,97992.48
2019-02-10T00:13:28.184Z,97995.43
2019-02-10T00:16:05.078Z,98001.16
2019-02-10T00:18:34.525Z,97997.36
2019-02-10T00:21:03.791Z,97992.48
2019-02-10T00:23:33.660Z,97996.56
2019-02-10T00:26:04.451Z,97997.27
2019-02-10T00:28:33.729Z,97992.20
2019-02-10T00:31:05.083Z,97985.48
2019-02-10T00:33:34.917Z,97980.87
2019-02-10T00:36:04.132Z,97984.52
2019-02-10T00:38:34.114Z,97985.19
2019-02-10T00:41:03.783Z,97981.59
2019-02-10T00:43:33.353Z,97976.44
2019-02-10T00:46:02.555Z,97970.98
2019-02-10T00:48:32.200Z,97967.22
2019-02-10T00:51:06.749Z,97961.59
2019-02-10T00:53:36.384Z,97963.55
2019-02-10T00:56:05.718Z,97960.80
2019-02-10T00:58:34.938Z,97958.96
2019-02-10T01:01:04.795Z,97955.63
2019-02-10T01:03:34.108Z,97958.97
2019-02-10T01:06:04.314Z,97959.58
2019-02-10T01:08:35.779Z,97957.84
2019-02-10T01:11:05.206Z,97957.66
2019-02-10T01:13:34.440Z,97961.27
2019-02-10T01:16:03.668Z,97957.66
2019-02-10T01:18:33.238Z,97950.23
2019-02-10T01:21:02.754Z,97934.28
2019-02-10T01:23:32.018Z,97932.29
2019-02-10T01:26:03.538Z,97926.88
2019-02-10T01:28:36.045Z,97921.30
2019-02-10T01:31:06.105Z,97924.98
2019-02-10T01:33:42.676Z,97922.28
2019-02-10T01:36:12.888Z,97918.33
2019-02-10T01:38:42.195Z,97912.58
2019-02-10T01:41:13.051Z,97900.64
2019-02-10T01:43:42.758Z,97898.50
2019-02-10T01:46:11.968Z,97897.67
2019-02-10T01:48:48.647Z,97888.14
2019-02-10T01:51:18.945Z,97893.24
2019-02-10T01:53:48.511Z,97885.35
2019-02-10T01:56:18.109Z,97887.34
2019-02-10T01:58:48.141Z,97876.48
2019-02-10T02:01:18.432Z,97875.78
2019-02-10T02:03:48.033Z,97877.61
2019-02-10T02:06:17.288Z,97868.45
2019-02-10T02:08:46.496Z,97869.44
2019-02-10T02:11:15.771Z,97861.42
2019-02-10T02:13:49.316Z,97852.22
2019-02-10T02:16:18.583Z,97854.52
2019-02-10T02:18:47.886Z,97852.09
2019-02-10T02:21:18.881Z,97855.19
2019-02-10T02:23:50.071Z,97852.09
2019-02-10T02:26:21.086Z,97850.34
2019-02-10T02:28:50.381Z,97839.82
2019-02-10T02:31:19.968Z,97838.11
2019-02-10T02:33:49.205Z,97826.19
2019-02-10T02:36:18.916Z,97828.53
2019-02-10T02:38:49.635Z,97826.11
2019-02-10T02:41:18.887Z,97818.77
2019-02-10T02:43:48.106Z,97804.61
2019-02-10T02:46:19.600Z,97811.67
2019-02-10T02:48:48.892Z,97804.51
2019-02-10T02:51:18.129Z,97802.83
2019-02-10T02:53:48.951Z,97799.25
2019-02-10T02:56:18.317Z,97799.25
2019-02-10T02:58:47.356Z,97786.49
2019-02-10T03:01:16.918Z,97772.50
2019-02-10T03:03:46.161Z,97764.28
2019-02-10T03:06:16.293Z,97752.97
2019-02-10T03:08:46.865Z,97747.35
2019-02-10T03:11:16.409Z,97756.19
2019-02-10T03:13:45.644Z,97750.41
2019-02-10T03:16:14.900Z,97757.29
2019-02-10T03:18:51.920Z,97760.10
2019-02-10T03:21:15.132Z,97759.55
2019-02-10T03:23:44.734Z,97748.39
2019-02-10T03:26:13.987Z,97746.75
2019-02-10T03:28:47.798Z,97735.89
2019-02-10T03:31:17.005Z,97733.61
2019-02-10T03:33:46.275Z,97727.34
2019-02-10T03:36:15.660Z,97714.50
2019-02-10T03:38:45.701Z,97713.03
2019-02-10T03:41:16.934Z,97721.37
2019-02-10T03:43:46.183Z,97733.52
2019-02-10T03:46:16.526Z,97726.94
2019-02-10T03:48:47.155Z,97724.03
2019-02-10T03:51:16.689Z,97719.45
2019-02-10T03:53:46.202Z,97728.50
2019-02-10T03:56:15.548Z,97731.83
2019-02-10T03:58:44.768Z,97717.46
2019-02-10T04:01:14.007Z,97702.06
2019-02-10T04:03:47.568Z,97698.60
2019-02-10T04:06:17.073Z,97691.69
2019-02-10T04:08:47.396Z,97694.66
2019-02-10T04:11:17.571Z,97696.43
2019-02-10T04:13:47.823Z,97684.17
2019-02-10T04:16:21.586Z,97676.74
2019-02-10T04:18:51.062Z,97665.77
2019-02-10T04:21:23.309Z,97666.78
2019-02-10T04:23:52.817Z,97672.34
2019-02-10T04:26:22.339Z,97669.91
2019-02-10T04:28:54.311Z,97664.46
2019-02-10T04:31:23.928Z,97665.92
2019-02-10T04:33:57.425Z,97668.37
2019-02-10T04:36:26.934Z,97666.69
2019-02-10T04:38:57.335Z,97660.72
2019-02-10T04:41:27.630Z,97659.52
2019-02-10T04:43:58.313Z,97652.98
2019-02-10T04:46:27.555Z,97645.55
2019-02-10T04:48:57.833Z,97640.44
2019-02-10T04:51:28.680Z,97636.95
2019-02-10T04:54:02.582Z,97638.71
2019-02-10T04:56:43.440Z,97632.13
2019-02-10T04:59:12.696Z,97628.42
2019-02-10T05:01:41.948Z,97628.38
2019-02-10T05:04:11.225Z,97626.61
2019-02-10T05:06:40.440Z,97626.05
2019-02-10T05:09:09.678Z,97625.93
2019-02-10T05:11:41.250Z,97629.53
2019-02-10T05:14:11.794Z,97618.59
2019-02-10T05:16:41.368Z,97612.82
2019-02-10T05:19:12.879Z,97618.97
2019-02-10T05:21:42.190Z,97610.01
2019-02-10T05:24:11.444Z,97609.22
2019-02-10T05:26:40.649Z,97606.78
2019-02-10T05:29:12.048Z,97590.27
2019-02-10T05:31:41.290Z,97581.78
2019-02-10T05:34:10.545Z,97577.88
2019-02-10T05:36:39.757Z,97573.60
2019-02-10T05:39:12.603Z,97565.16
2019-02-10T05:41:41.820Z,97569.79
2019-02-10T05:44:11.565Z,97556.82
2019-02-10T05:46:41.656Z,97554.25
2019-02-10T05:49:10.917Z,97534.26
2019-02-10T05:51:40.177Z,97511.06
2019-02-10T05:54:09.415Z,97518.66
2019-02-10T05:56:38.630Z,97502.67
2019-02-10T05:59:09.317Z,97494.53
2019-02-10T06:02:00.888Z,97504.42
2019-02-10T06:04:30.964Z,97514.52
2019-02-10T06:07:02.714Z,97518.31
2019-02-10T06:09:33.189Z,97513.48
2019-02-10T06:12:02.395Z,97509.23
2019-02-10T06:14:31.989Z,97507.42
2019-02-10T06:17:03.972Z,97496.38
2019-02-10T06:19:34.023Z,97503.03
2019-02-10T06:22:03.524Z,97491.91
2019-02-10T06:24:33.079Z,97495.13
2019-02-10T06:27:02.295Z,97477.95
2019-02-10T06:29:31.508Z,97453.33
2019-02-10T06:32:02.356Z,97463.62
2019-02-10T06:34:32.933Z,97462.50
2019-02-10T06:37:02.945Z,97454.16
2019-02-10T06:39:32.955Z,97450.67
2019-02-10T06:42:02.166Z,97442.73
2019-02-10T06:44:33.107Z,97436.84
2019-02-10T06:47:02.626Z,97439.91
2019-02-10T06:49:32.394Z,97433.44
2019-02-10T06:52:02.014Z,97430.26
2019-02-10T06:54:37.020Z,97432.65
2019-02-10T06:57:07.837Z,97433.25
2019-02-10T06:59:46.067Z,97432.06
2019-02-10T07:02:49.250Z,97423.68
2019-02-10T07:05:19.564Z,97434.45
2019-02-10T07:07:49.469Z,97429.27
2019-02-10T07:10:18.986Z,97438.16
2019-02-10T07:12:53.686Z,97443.16
2019-02-10T07:15:59.049Z,97444.52
2019-02-10T07:19:05.111Z,97453.34
2019-02-10T07:21:41.883Z,97447.61
2019-02-10T07:24:41.888Z,97449.69
2019-02-10T07:27:19.096Z,97441.74
2019-02-10T07:30:15.552Z,97441.95
2019-02-10T07:32:49.454Z,97449.41
2019-02-10T07:36:01.618Z,97446.53
2019-02-10T07:38:47.336Z,97432.47
2019-02-10T07:42:04.153Z,97411.65
2019-02-10T07:44:46.812Z,97403.95
2019-02-10T07:47:47.564Z,97403.05
2019-02-10T07:50:59.425Z,97396.00
2019-02-10T07:54:12.689Z,97390.57
2019-02-10T07:57:01.178Z,97374.78
2019-02-10T07:59:36.565Z,97359.34
2019-02-10T08:02:55.506Z,97348.19
2019-02-10T08:05:54.998Z,97353.34
2019-02-10T08:09:11.792Z,97344.83
2019-02-10T08:12:11.720Z,97344.37
2019-02-10T08:14:46.991Z,97343.97
2019-02-10T08:17:57.266Z,97342.44
2019-02-10T08:20:52.831Z,97324.47
2019-02-10T08:23:56.246Z,97304.95
2019-02-10T08:26:55.973Z,97308.38
2019-02-10T08:30:02.673Z,97293.63
2019-02-10T08:33:07.350Z,97287.00
2019-02-10T08:36:14.340Z,97267.86
2019-02-10T08:39:13.361Z,97251.19
2019-02-10T08:42:07.079Z,97259.94
2019-02-10T08:45:13.066Z,97253.86
2019-02-10T08:48:13.422Z,97234.66
2019-02-10T08:51:13.336Z,97253.92
2019-02-10T08:53:45.102Z,97274.31
2019-02-10T08:56:14.618Z,97258.66
2019-02-10T08:58:45.180Z,97262.19
2019-02-10T09:01:14.429Z,97270.95
2019-02-10T09:03:43.702Z,97281.29
2019-02-10T09:06:13.281Z,97289.45
2019-02-10T09:08:42.568Z,97290.81
2019-02-10T09:11:11.823Z,97279.94
2019-02-10T09:13:41.521Z,97260.77
2019-02-10T09:16:10.586Z,97250.73
2019-02-10T09:18:49.121Z,97240.02
2019-02-10T09:21:20.767Z,97237.16
2019-02-10T09:23:50.028Z,97241.24
2019-02-10T09:26:19.915Z,97231.53
2019-02-10T09:28:53.775Z,97224.17
2019-02-10T09:31:23.188Z,97216.80
2019-02-10T09:33:53.284Z,97198.25
2019-02-10T09:36:22.802Z,97200.50
2019-02-10T09:38:52.087Z,97194.84
2019-02-10T09:41:25.055Z,97163.89
2019-02-10T09:43:54.614Z,97183.76
2019-02-10T09:46:24.006Z,97190.98
2019-02-10T09:48:54.473Z,97183.50
2019-02-10T09:51:28.925Z,97200.83
2019-02-10T09:53:59.296Z,97216.64
2019-02-10T09:56:29.918Z,97200.22
2019-02-10T09:58:59.156Z,97207.66
2019-02-10T10:01:28.434Z,97196.34
2019-02-10T10:03:57.721Z,97198.56
2019-02-10T10:06:26.944Z,97189.81
2019-02-10T10:08:56.450Z,97179.39
2019-02-10T10:11:25.702Z,97181.86
2019-02-10T10:13:55.273Z,97176.96
2019-02-10T10:16:27.369Z,97177.80
2019-02-10T10:18:56.996Z,97174.05
2019-02-10T10:21:27.394Z,97159.12
2019-02-10T10:23:59.072Z,97159.98
2019-02-10T10:26:28.329Z,97152.13
2019-02-10T10:28:58.379Z,97140.07
2019-02-10T10:31:27.628Z,97133.55
2019-02-10T10:33:58.326Z,97127.39
2019-02-10T10:36:28.173Z,97136.19
2019-02-10T10:38:57.451Z,97133.84
2019-02-10T10:41:27.482Z,97122.80
2019-02-10T10:43:56.728Z,97111.28
2019-02-10T10:46:25.942Z,97101.25
2019-02-10T10:48:57.925Z,97099.34
2019-02-10T10:51:27.407Z,97095.27
2019-02-10T10:53:58.063Z,97097.53
2019-02-10T10:56:27.283Z,97088.47
2019-02-10T10:58:57.198Z,97072.97
2019-02-10T11:01:26.428Z,97051.05
2019-02-10T11:03:55.688Z,97025.27
2019-02-10T11:06:25.238Z,97021.19
2019-02-10T11:08:56.547Z,97010.56
2019-02-10T11:11:28.011Z,97011.77
2019-02-10T11:13:57.292Z,97008.20
2019-02-10T11:16:26.984Z,96988.88
2019-02-10T11:18:56.245Z,96980.24
2019-02-10T11:21:27.638Z,96970.84
2019-02-10T11:24:00.083Z,96976.25
2019-02-10T11:26:30.105Z,96946.80
2019-02-10T11:28:59.389Z,96928.94
2019-02-10T11:31:28.630Z,96911.72
2019-02-10T11:33:59.980Z,96906.16
2019-02-10T11:36:29.641Z,96896.73
2019-02-10T11:38:59.681Z,96874.07
2019-02-10T11:41:28.907Z,96855.67
2019-02-10T11:43:58.145Z,96833.28
2019-02-10T11:46:27.654Z,96836.63
2019-02-10T11:48:58.136Z,96833.67
2019-02-10T11:51:27.364Z,96816.49
2019-02-10T11:54:04.302Z,96820.03
2019-02-10T11:56:35.022Z,96815.61
2019-02-10T11:59:04.891Z,96802.73
2019-02-10T12:01:36.651Z,96792.05
2019-02-10T12:04:05.997Z,96787.51
2019-02-10T12:06:36.638Z,96779.37
2019-02-10T12:09:08.123Z,96767.42
2019-02-10T12:11:37.344Z,96737.67
2019-02-10T12:14:06.863Z,96744.72
2019-02-10T12:16:39.670Z,96747.31
2019-02-10T12:19:08.885Z,96744.98
2019-02-10T12:21:37.980Z,96748.55
2019-02-10T12:24:08.244Z,96763.02
2019-02-10T12:26:37.784Z,96751.80
2019-02-10T12:29:06.996Z,96747.45
2019-02-10T12:31:42.649Z,96732.29
2019-02-10T12:34:14.771Z,96743.73
2019-02-10T12:36:44.029Z,96726.16
2019-02-10T12:39:15.688Z,96702.05
2019-02-10T12:41:46.311Z,96699.16
2019-02-10T12:44:15.568Z,96698.89
2019-02-10T12:46:44.819Z,96696.23
2019-02-10T12:49:14.417Z,96675.23
2019-02-10T12:51:43.666Z,96662.78
2019-02-10T12:54:13.158Z,96652.02
2019-02-10T12:56:42.336Z,96647.70
2019-02-10T12:59:11.584Z,96642.03
2019-02-10T13:01:42.018Z,96652.19
2019-02-10T13:04:11.234Z,96647.66
2019-02-10T13:06:40.510Z,96637.39
2019-02-10T13:09:12.868Z,96618.90
2019-02-10T13:11:42.672Z,96616.58
2019-02-10T13:14:11.912Z,96618.09
2019-02-10T13:16:41.164Z,96622.45
2019-02-10T13:19:10.404Z,96616.93
2019-02-10T13:21:42.289Z,96622.02
2019-02-10T13:24:11.510Z,96626.65
2019-02-10T13:26:41.122Z,96611.64
2019-02-10T13:29:10.414Z,96619.14
2019-02-10T13:31:41.407Z,96625.63
2019-02-10T13:34:12.046Z,96602.55
2019-02-10T13:36:42.058Z,96616.85
2019-02-10T13:39:12.579Z,96610.42
2019-02-10T13:41:40.473Z,96614.77
2019-02-10T13:44:10.472Z,96602.92
2019-02-10T13:46:39.747Z,96583.17
2019-02-10T13:49:09.371Z,96584.25
2019-02-10T13:51:40.025Z,96583.30
2019-02-10T13:54:09.986Z,96574.53
2019-02-10T13:56:39.291Z,96556.52
2019-02-10T13:59:09.663Z,96559.39
2019-02-10T14:01:38.882Z,96555.44
2019-02-10T14:04:08.118Z,96552.23
2019-02-10T14:06:38.815Z,96556.80
2019-02-10T14:09:08.030Z,96548.68
2019-02-10T14:11:37.597Z,96553.17
2019-02-10T14:14:06.821Z,96553.98
2019-02-10T14:16:36.447Z,96565.88
2019-02-10T14:19:05.983Z,96561.41
2019-02-10T14:21:37.912Z,96577.47
2019-02-10T14:24:08.049Z,96567.56
2019-02-10T14:26:37.856Z,96562.83
2019-02-10T14:29:07.450Z,96545.19
2019-02-10T14:31:36.669Z,96539.28
2019-02-10T14:34:07.785Z,96506.97
2019-02-10T14:36:37.867Z,96476.31
2019-02-10T14:39:07.126Z,96482.59
2019-02-10T14:41:36.345Z,96506.02
2019-02-10T14:44:08.233Z,96525.02
2019-02-10T14:46:38.351Z,96504.13
2019-02-10T14:49:07.584Z,96488.26
2019-02-10T14:51:37.430Z,96476.62
2019-02-10T14:54:06.857Z,96484.41
2019-02-10T14:56:36.420Z,96496.48
2019-02-10T14:59:07.166Z,96489.45
2019-02-10T15:01:36.849Z,96479.31
2019-02-10T15:04:06.197Z,96487.53
2019-02-10T15:06:35.410Z,96464.81
2019-02-10T15:09:15.035Z,96462.06
2019-02-10T15:11:44.837Z,96439.20
2019-02-10T15:14:16.608Z,96463.13
2019-02-10T15:16:46.126Z,96468.48
2019-02-10T15:19:16.609Z,96475.90
2019-02-10T15:21:48.414Z,96469.84
2019-02-10T15:24:17.654Z,96491.83
2019-02-10T15:26:49.213Z,96498.85
2019-02-10T15:29:19.562Z,96497.66
2019-02-10T15:31:48.833Z,96478.03
2019-02-10T15:34:18.487Z,96451.31
2019-02-10T15:36:47.766Z,96429.91
2019-02-10T15:39:17.660Z,96400.88
2019-02-10T15:41:46.906Z,96424.77
2019-02-10T15:44:16.993Z,96398.72
2019-02-10T15:46:46.216Z,96413.17
2019-02-10T15:49:16.993Z,96421.92
2019-02-10T15:51:46.237Z,96412.38
2019-02-10T15:54:15.461Z,96419.24
2019-02-10T15:56:44.700Z,96417.77
2019-02-10T15:59:16.345Z,96405.28
2019-02-10T16:01:45.572Z,96400.73
2019-02-10T16:04:14.817Z,96396.09
2019-02-10T16:06:46.732Z,96403.81
2019-02-10T16:09:16.145Z,96424.56
2019-02-10T16:11:45.361Z,96436.03
2019-02-10T16:14:14.617Z,96434.22
2019-02-10T16:16:43.857Z,96434.86
2019-02-10T16:19:13.279Z,96414.66
2019-02-10T16:21:45.344Z,96415.78
2019-02-10T16:24:16.857Z,96423.53
2019-02-10T16:26:46.379Z,96447.05
2019-02-10T16:29:17.629Z,96447.48
2019-02-10T16:31:46.861Z,96447.05
2019-02-10T16:34:16.132Z,96461.23
2019-02-10T16:36:48.727Z,96453.12
2019-02-10T16:39:18.305Z,96468.94
2019-02-10T16:41:47.842Z,96452.13
2019-02-10T16:44:17.104Z,96445.75
2019-02-10T16:46:46.316Z,96429.70
2019-02-10T16:49:16.642Z,96447.97
2019-02-10T16:51:46.203Z,96468.31
2019-02-10T16:54:15.451Z,96476.96
2019-02-10T16:56:46.102Z,96472.90
2019-02-10T16:59:16.490Z,96465.23
2019-02-10T17:01:45.736Z,96441.06
2019-02-10T17:04:15.559Z,96431.38
2019-02-10T17:06:44.787Z,96411.55
2019-02-10T17:09:14.040Z,96404.63
2019-02-10T17:11:44.787Z,96388.83
2019-02-10T17:14:17.352Z,96386.18
2019-02-10T17:16:47.997Z,96386.52
2019-02-10T17:19:17.237Z,96377.19
2019-02-10T17:21:49.019Z,96386.88
2019-02-10T17:24:18.287Z,96392.46
2019-02-10T17:26:47.513Z,96389.82
2019-02-10T17:29:16.753Z,96387.83
2019-02-10T17:31:45.997Z,96364.02
2019-02-10T17:34:16.755Z,96376.80
2019-02-10T17:36:45.974Z,96420.19
2019-02-10T17:39:20.141Z,96435.55
2019-02-10T17:41:50.984Z,96431.25
2019-02-10T17:44:20.606Z,96431.12
2019-02-10T17:46:52.959Z,96429.76
2019-02-10T17:49:23.622Z,96445.59
2019-02-10T17:51:53.215Z,96462.86
2019-02-10T17:54:22.432Z,96469.00
2019-02-10T17:56:51.698Z,96474.20
2019-02-10T17:59:21.193Z,96466.03
2019-02-10T18:01:50.429Z,96468.57
2019-02-10T18:04:21.945Z,96461.08
2019-02-10T18:06:51.200Z,96452.36
2019-02-10T18:09:21.671Z,96446.27
2019-02-10T18:11:50.915Z,96444.09
2019-02-10T18:14:37.765Z,96441.70
2019-02-10T18:17:27.231Z,96442.23
2019-02-10T18:20:11.056Z,96445.19
2019-02-10T18:22:59.230Z,96449.33
2019-02-10T18:25:35.753Z,96450.37
2019-02-10T18:28:32.264Z,96463.03
2019-02-10T18:31:28.066Z,96475.38
2019-02-10T18:34:10.127Z,96479.88
2019-02-10T18:37:10.386Z,96504.91
2019-02-10T18:39:56.235Z,96526.31
2019-02-10T18:42:47.536Z,96547.09
2019-02-10T18:45:36.285Z,96535.44
2019-02-10T18:48:24.353Z,96537.49
2019-02-10T18:51:04.883Z,96528.54
2019-02-10T18:53:52.080Z,96540.78
2019-02-10T18:56:33.137Z,96547.39
2019-02-10T18:59:23.451Z,96549.61
2019-02-10T19:02:01.579Z,96556.80
2019-02-10T19:04:49.407Z,96546.39
2019-02-10T19:07:52.616Z,96484.05
2019-02-10T19:10:43.853Z,96503.42
2019-02-10T19:13:38.412Z,96522.50
2019-02-10T19:16:32.702Z,96545.25
2019-02-10T19:19:32.787Z,96551.67
2019-02-10T19:22:27.928Z,96550.75
2019-02-10T19:25:24.646Z,96553.81
2019-02-10T19:28:12.155Z,96557.08
2019-02-10T19:30:50.735Z,96563.45
2019-02-10T19:33:38.383Z,96572.42
2019-02-10T19:36:22.917Z,96578.91
2019-02-10T19:39:08.486Z,96582.36
2019-02-10T19:41:43.621Z,96590.01
2019-02-10T19:44:43.788Z,96583.05
2019-02-10T19:47:30.985Z,96590.52
2019-02-10T19:50:39.660Z,96595.69
2019-02-10T19:53:19.864Z,96593.55
2019-02-10T19:56:08.083Z,96655.86
2019-02-10T19:58:59.154Z,96691.09
2019-02-10T20:01:59.472Z,96712.11
2019-02-10T20:04:37.290Z,96709.93
2019-02-10T20:07:28.297Z,96724.97
2019-02-10T20:10:21.901Z,96733.45
2019-02-10T20:13:13.428Z,96715.64
2019-02-10T20:16:04.238Z,96691.32
2019-02-10T20:18:52.452Z,96705.89
2019-02-10T20:21:43.404Z,96716.57
2019-02-10T20:24:30.152Z,96707.73
2019-02-10T20:27:33.437Z,96735.05
2019-02-10T20:30:20.336Z,96720.60
2019-02-10T20:33:08.570Z,96750.59
2019-02-10T20:35:57.750Z,96765.59
2019-02-10T20:38:35.087Z,96753.20
2019-02-10T20:41:24.298Z,96739.98
2019-02-10T20:44:14.104Z,96745.05
2019-02-10T20:47:02.852Z,96750.94
2019-02-10T20:49:47.896Z,96746.11
2019-02-10T20:52:26.442Z,96755.99
2019-02-10T20:55:15.034Z,96772.09
2019-02-10T20:58:09.312Z,96754.86
2019-02-10T21:01:06.390Z,96776.33
2019-02-10T21:03:54.579Z,96777.27
2019-02-10T21:06:43.589Z,96779.02
2019-02-10T21:09:22.290Z,96791.76
2019-02-10T21:12:20.437Z,96783.48
2019-02-10T21:15:04.338Z,96791.20
2019-02-10T21:17:50.887Z,96814.06
2019-02-10T21:20:36.890Z,96806.97
2019-02-10T21:23:14.902Z,96834.98
2019-02-10T21:26:01.637Z,96833.45
2019-02-10T21:28:47.566Z,96832.83
2019-02-10T21:31:34.851Z,96821.37
2019-02-10T21:34:10.029Z,96828.88
2019-02-10T21:36:58.251Z,96827.74
2019-02-10T21:39:48.088Z,96833.45
2019-02-10T21:42:36.276Z,96833.55
2019-02-10T21:45:42.697Z,96827.80
2019-02-10T21:48:36.942Z,96814.78
2019-02-10T21:51:06.622Z,96821.80
2019-02-10T21:53:36.562Z,96825.47
2019-02-10T21:56:06.132Z,96828.99
2019-02-10T21:58:35.970Z,96838.94
2019-02-10T22:01:10.249Z,96839.03
2019-02-10T22:03:40.073Z,96833.78
2019-02-10T22:06:10.904Z,96835.67
2019-02-10T22:08:42.504Z,96829.92
2019-02-10T22:11:12.351Z,96841.35
2019-02-10T22:13:46.074Z,96834.55
2019-02-10T22:16:16.193Z,96828.92
2019-02-10T22:18:45.409Z,96833.58
2019-02-10T22:21:15.027Z,96845.35
2019-02-10T22:23:44.301Z,96847.44
2019-02-10T22:26:13.553Z,96852.83
2019-02-10T22:28:42.845Z,96858.74
2019-02-10T22:31:18.646Z,96860.45
2019-02-10T22:33:43.053Z,96844.80
2019-02-10T22:36:12.265Z,96829.22
2019-02-10T22:38:41.520Z,96826.61
2019-02-10T22:41:14.133Z,96814.30
2019-02-10T22:43:43.859Z,96802.08
2019-02-10T22:46:13.073Z,96789.82
2019-02-10T22:48:44.345Z,96795.91
2019-02-10T22:51:13.969Z,96801.78
2019-02-10T22:53:43.776Z,96814.26
2019-02-10T22:56:13.388Z,96826.98
2019-02-10T22:58:42.661Z,96819.36
2019-02-10T23:01:11.868Z,96810.34
2019-02-10T23:03:41.132Z,96796.09
2019-02-10T23:06:10.348Z,96783.66
2019-02-10T23:08:40.701Z,96775.30
2019-02-10T23:11:09.946Z,96787.70
2019-02-10T23:13:39.466Z,96781.60
2019-02-10T23:16:08.665Z,96783.61
2019-02-10T23:18:37.929Z,96779.64
2019-02-10T23:21:07.532Z,96786.41
2019-02-10T23:23:36.763Z,96791.60
2019-02-10T23:26:06.716Z,96779.66
2019-02-10T23:28:36.277Z,96793.59
2019-02-10T23:31:07.948Z,96801.28
2019-02-10T23:33:39.498Z,96815.55
2019-02-10T23:36:09.890Z,96821.77
2019-02-10T23:38:39.123Z,96817.28
2019-02-10T23:41:15.772Z,96828.06
2019-02-10T23:43:45.018Z,96825.64
2019-02-10T23:46:14.260Z,96841.42
2019-02-10T23:48:43.889Z,96846.83
2019-02-10T23:51:13.130Z,96848.06
2019-02-10T23:53:42.961Z,96851.83
2019-02-10T23:56:12.181Z,96853.72
2019-02-10T23:58:42.585Z,96849.66
